createdAt,value
2022-10-31T00:02:28.862Z,2.67
2022-10-31T00:05:38.933Z,3.37
2022-10-31T00:08:49.146Z,2.90
2022-10-31T00:11:57.390Z,2.93
2022-10-31T00:15:03.097Z,2.57
2022-10-31T00:18:09.689Z,2.77
2022-10-31T00:21:13.960Z,2.70
2022-10-31T00:24:18.345Z,2.80
2022-10-31T00:27:22.622Z,2.67
2022-10-31T00:30:28.359Z,3.50
2022-10-31T00:33:32.935Z,3.20
2022-10-31T00:36:36.965Z,2.60
2022-10-31T00:39:41.285Z,3.27
2022-10-31T00:42:45.519Z,3.00
2022-10-31T00:45:51.191Z,3.43
2022-10-31T00:48:55.204Z,2.97
2022-10-31T00:51:59.309Z,2.90
2022-10-31T00:55:03.551Z,2.63
2022-10-31T00:58:08.104Z,2.37
2022-10-31T01:01:13.857Z,3.27
2022-10-31T01:04:18.618Z,2.87
2022-10-31T01:07:22.835Z,2.60
2022-10-31T01:10:26.965Z,3.20
2022-10-31T01:13:31.387Z,2.50
2022-10-31T01:16:36.915Z,2.70
2022-10-31T01:19:41.381Z,2.73
2022-10-31T01:22:45.388Z,2.83
2022-10-31T01:25:49.449Z,2.80
2022-10-31T01:28:55.784Z,2.90
2022-10-31T01:32:01.440Z,2.87
2022-10-31T01:35:05.874Z,2.53
2022-10-31T01:38:10.304Z,3.00
2022-10-31T01:41:16.308Z,2.60
2022-10-31T01:44:54.247Z,2.63
2022-10-31T01:48:00.196Z,3.13
2022-10-31T01:51:06.240Z,2.97
2022-10-31T01:54:14.229Z,2.70
2022-10-31T01:57:20.696Z,2.50
2022-10-31T02:00:25.345Z,3.33
2022-10-31T02:03:32.170Z,2.77
2022-10-31T02:06:40.418Z,2.90
2022-10-31T02:09:45.834Z,3.03
2022-10-31T02:12:50.385Z,2.57
2022-10-31T02:15:57.838Z,2.73
2022-10-31T02:19:03.979Z,2.70
2022-10-31T02:22:16.098Z,3.43
2022-10-31T02:25:39.969Z,2.57
2022-10-31T02:29:03.998Z,2.50
2022-10-31T02:32:16.810Z,2.30
2022-10-31T02:35:33.436Z,3.07
2022-10-31T02:38:47.141Z,2.80
2022-10-31T02:42:06.789Z,2.73
2022-10-31T02:45:16.393Z,3.10
2022-10-31T02:48:29.281Z,3.57
2022-10-31T02:51:33.865Z,2.77
2022-10-31T02:54:38.166Z,3.10
2022-10-31T02:57:44.910Z,2.53
2022-10-31T03:01:01.571Z,2.77
2022-10-31T03:04:28.617Z,2.67
2022-10-31T03:07:41.869Z,2.90
2022-10-31T03:10:50.476Z,2.93
2022-10-31T03:14:03.657Z,2.50
2022-10-31T03:17:15.696Z,2.70
2022-10-31T03:20:24.887Z,2.70
2022-10-31T03:23:31.137Z,2.63
2022-10-31T03:26:38.479Z,2.47
2022-10-31T03:29:45.103Z,2.83
2022-10-31T03:32:52.858Z,3.07
2022-10-31T03:36:05.479Z,2.80
2022-10-31T03:39:13.616Z,2.97
2022-10-31T03:42:21.266Z,2.50
2022-10-31T03:45:28.830Z,2.90
2022-10-31T03:48:34.258Z,2.70
2022-10-31T03:51:46.392Z,3.00
2022-10-31T03:54:57.486Z,3.30
2022-10-31T03:58:05.541Z,2.50
2022-10-31T04:01:14.267Z,2.80
2022-10-31T04:04:19.375Z,2.70
2022-10-31T04:07:29.867Z,2.93
2022-10-31T04:10:35.722Z,3.53
2022-10-31T04:13:42.146Z,2.83
2022-10-31T04:16:50.968Z,3.10
2022-10-31T04:20:02.593Z,3.00
2022-10-31T04:23:21.177Z,4.10
2022-10-31T04:26:26.329Z,3.60
2022-10-31T04:29:30.599Z,2.90
2022-10-31T04:32:35.416Z,2.90
2022-10-31T04:35:39.622Z,4.03
2022-10-31T04:38:45.477Z,3.33
2022-10-31T04:42:15.585Z,2.70
2022-10-31T04:45:21.287Z,2.77
2022-10-31T04:48:29.102Z,3.00
2022-10-31T04:51:33.534Z,2.90
2022-10-31T04:54:39.545Z,3.13
2022-10-31T04:58:13.093Z,3.87
2022-10-31T05:01:17.640Z,3.17
2022-10-31T05:04:22.680Z,3.60
2022-10-31T05:07:27.247Z,3.53
2022-10-31T05:10:36.950Z,3.30
2022-10-31T05:13:41.792Z,3.10
2022-10-31T05:16:57.296Z,3.90
2022-10-31T05:20:27.162Z,3.73
2022-10-31T05:23:47.462Z,2.83
2022-10-31T05:26:56.106Z,3.30
2022-10-31T05:33:09.892Z,4.00
2022-10-31T05:36:35.148Z,2.77
2022-10-31T05:39:49.794Z,2.97
2022-10-31T05:43:00.133Z,3.30
2022-10-31T05:46:04.705Z,2.87
2022-10-31T05:49:27.351Z,3.03
2022-10-31T05:53:11.412Z,3.10
2022-10-31T05:56:17.377Z,3.40
2022-10-31T05:59:23.176Z,3.53
2022-10-31T06:02:28.166Z,3.03
2022-10-31T06:06:00.457Z,3.20
2022-10-31T06:09:14.809Z,3.63
2022-10-31T06:12:22.199Z,3.93
2022-10-31T06:15:48.197Z,3.50
2022-10-31T06:19:04.336Z,3.90
2022-10-31T06:22:12.780Z,3.47
2022-10-31T06:25:17.164Z,3.40
2022-10-31T06:28:26.550Z,3.00
2022-10-31T06:31:41.606Z,3.67
2022-10-31T06:34:49.523Z,3.83
2022-10-31T06:37:54.901Z,3.03
2022-10-31T06:41:16.191Z,3.63
2022-10-31T06:44:26.535Z,3.73
2022-10-31T06:47:56.704Z,3.77
2022-10-31T06:51:06.620Z,3.80
2022-10-31T06:54:10.927Z,3.50
2022-10-31T06:57:24.199Z,3.13
2022-10-31T07:00:30.096Z,3.03
2022-10-31T07:03:43.156Z,3.10
2022-10-31T07:06:51.749Z,3.35
2022-10-31T07:09:59.313Z,3.40
2022-10-31T07:13:19.770Z,3.28
2022-10-31T07:16:30.648Z,3.08
2022-10-31T07:19:36.539Z,3.55
2022-10-31T07:22:41.046Z,2.83
2022-10-31T07:25:48.191Z,3.22
2022-10-31T07:28:56.952Z,3.13
2022-10-31T07:32:03.146Z,2.90
2022-10-31T07:35:11.066Z,3.55
2022-10-31T07:38:24.813Z,2.92
2022-10-31T07:41:31.372Z,3.10
2022-10-31T07:44:41.462Z,3.47
2022-10-31T07:48:10.823Z,3.00
2022-10-31T07:51:34.632Z,3.55
2022-10-31T07:54:59.215Z,3.40
2022-10-31T07:58:07.689Z,4.93
2022-10-31T08:01:16.107Z,3.53
2022-10-31T08:04:31.737Z,3.15
2022-10-31T08:07:56.264Z,3.65
2022-10-31T08:11:03.027Z,3.38
2022-10-31T08:14:08.992Z,3.60
2022-10-31T08:17:28.862Z,3.65
2022-10-31T08:20:43.380Z,3.17
2022-10-31T08:23:49.392Z,2.83
2022-10-31T08:26:56.558Z,3.45
2022-10-31T08:30:02.034Z,3.50
2022-10-31T08:33:10.774Z,3.45
2022-10-31T08:36:35.945Z,3.17
2022-10-31T08:39:52.302Z,3.13
2022-10-31T08:43:00.456Z,3.10
2022-10-31T08:46:08.409Z,3.00
2022-10-31T08:49:13.764Z,3.53
2022-10-31T08:52:23.441Z,3.40
2022-10-31T08:55:41.243Z,3.30
2022-10-31T08:59:04.200Z,3.40
2022-10-31T09:02:30.367Z,3.38
2022-10-31T09:05:37.823Z,3.05
2022-10-31T09:08:49.504Z,3.20
2022-10-31T09:11:56.399Z,3.22
2022-10-31T09:15:21.840Z,3.33
2022-10-31T09:18:49.023Z,3.00
2022-10-31T09:21:56.470Z,3.00
2022-10-31T09:25:00.853Z,3.13
2022-10-31T09:28:08.417Z,2.83
2022-10-31T09:31:13.019Z,3.25
2022-10-31T09:34:26.269Z,3.10
2022-10-31T09:38:00.531Z,2.60
2022-10-31T09:41:19.153Z,3.08
2022-10-31T09:44:33.559Z,2.90
2022-10-31T09:47:51.291Z,3.08
2022-10-31T09:51:31.568Z,3.08
2022-10-31T09:54:51.777Z,2.33
2022-10-31T09:57:57.129Z,2.78
2022-10-31T10:01:05.789Z,3.22
2022-10-31T10:04:25.866Z,2.50
2022-10-31T10:07:44.999Z,2.45
2022-10-31T10:11:27.322Z,2.25
2022-10-31T10:15:03.078Z,1.92
2022-10-31T10:18:18.157Z,2.38
2022-10-31T10:21:32.549Z,2.30
2022-10-31T10:24:56.416Z,2.38
2022-10-31T10:28:11.119Z,2.88
2022-10-31T10:31:18.253Z,2.85
2022-10-31T10:34:28.883Z,2.15
2022-10-31T10:37:38.768Z,2.88
2022-10-31T10:40:43.728Z,2.53
2022-10-31T10:43:48.154Z,2.45
2022-10-31T10:47:17.521Z,2.28
2022-10-31T10:50:26.888Z,2.28
2022-10-31T10:54:03.233Z,2.15
2022-10-31T10:57:26.780Z,2.20
2022-10-31T11:00:34.347Z,2.60
2022-10-31T11:03:39.065Z,2.00
2022-10-31T11:06:44.742Z,2.40
2022-10-31T11:09:49.472Z,2.15
2022-10-31T11:13:20.639Z,2.72
2022-10-31T11:16:36.768Z,2.22
2022-10-31T11:19:43.939Z,2.53
2022-10-31T11:22:51.741Z,2.22
2022-10-31T11:25:59.038Z,2.42
2022-10-31T11:29:04.501Z,2.28
2022-10-31T11:32:19.612Z,2.33
2022-10-31T11:35:26.760Z,2.13
2022-10-31T11:38:37.841Z,2.63
2022-10-31T11:41:43.588Z,2.30
2022-10-31T11:44:47.783Z,2.80
2022-10-31T11:47:58.207Z,2.33
2022-10-31T11:51:04.102Z,2.47
2022-10-31T11:54:23.925Z,2.60
2022-10-31T11:57:31.501Z,2.78
2022-10-31T12:00:42.171Z,2.85
2022-10-31T12:03:57.602Z,2.08
2022-10-31T12:07:02.141Z,2.78
2022-10-31T12:10:13.872Z,2.38
2022-10-31T12:13:34.093Z,2.55
2022-10-31T12:16:45.151Z,3.08
2022-10-31T12:20:00.731Z,2.17
2022-10-31T12:23:10.969Z,3.08
2022-10-31T12:26:24.115Z,2.30
2022-10-31T12:29:44.320Z,2.30
2022-10-31T12:33:15.909Z,1.85
2022-10-31T12:36:35.632Z,1.90
2022-10-31T12:39:49.399Z,3.15
2022-10-31T12:43:08.003Z,2.10
2022-10-31T12:46:21.438Z,2.20
2022-10-31T12:49:49.043Z,2.22
2022-10-31T12:53:06.508Z,2.10
2022-10-31T12:56:25.143Z,1.90
2022-10-31T12:59:36.713Z,2.33
2022-10-31T13:02:45.527Z,1.85
2022-10-31T13:05:54.485Z,2.17
2022-10-31T13:09:02.996Z,2.00
2022-10-31T13:12:12.612Z,2.25
2022-10-31T13:15:21.719Z,2.30
2022-10-31T13:18:30.659Z,1.90
2022-10-31T13:21:40.346Z,1.95
2022-10-31T13:24:55.439Z,2.40
2022-10-31T13:28:04.453Z,1.52
2022-10-31T13:31:10.883Z,1.70
2022-10-31T13:34:26.202Z,1.88
2022-10-31T13:37:37.049Z,2.20
2022-10-31T13:40:48.591Z,1.98
2022-10-31T13:44:02.692Z,2.30
2022-10-31T13:47:28.872Z,2.50
2022-10-31T13:50:34.448Z,2.45
2022-10-31T13:53:41.129Z,2.42
2022-10-31T13:56:51.074Z,1.90
2022-10-31T13:59:57.803Z,2.17
2022-10-31T14:03:03.931Z,2.83
2022-10-31T14:06:11.042Z,2.50
2022-10-31T14:09:33.808Z,2.97
2022-10-31T14:12:42.456Z,2.53
2022-10-31T14:15:57.260Z,2.40
2022-10-31T14:19:07.353Z,2.85
2022-10-31T14:22:22.729Z,4.05
2022-10-31T14:25:37.993Z,2.13
2022-10-31T14:28:42.093Z,3.13
2022-10-31T14:31:48.333Z,2.40
2022-10-31T14:34:59.901Z,2.70
2022-10-31T14:38:29.072Z,2.72
2022-10-31T14:41:48.481Z,2.70
2022-10-31T14:45:16.021Z,3.00
2022-10-31T14:48:52.541Z,2.45
2022-10-31T14:52:00.393Z,2.38
2022-10-31T14:55:09.791Z,2.60
2022-10-31T14:58:21.879Z,3.10
2022-10-31T15:01:30.303Z,3.22
2022-10-31T15:04:35.043Z,3.22
2022-10-31T15:07:53.378Z,3.85
2022-10-31T15:10:57.623Z,4.57
2022-10-31T15:14:02.294Z,4.40
2022-10-31T15:17:06.691Z,5.28
2022-10-31T15:20:14.050Z,4.57
2022-10-31T15:23:24.254Z,4.78
2022-10-31T15:26:35.092Z,4.43
2022-10-31T15:29:39.591Z,4.53
2022-10-31T15:32:57.391Z,4.65
2022-10-31T15:36:04.303Z,3.60
2022-10-31T15:39:13.779Z,3.63
2022-10-31T15:42:23.253Z,4.55
2022-10-31T15:45:29.420Z,4.88
2022-10-31T15:48:35.908Z,4.43
2022-10-31T15:51:40.609Z,4.35
2022-10-31T15:54:49.952Z,4.50
2022-10-31T15:57:56.029Z,6.68
2022-10-31T16:01:02.179Z,4.45
2022-10-31T16:04:21.539Z,4.18
2022-10-31T16:07:26.739Z,4.28
2022-10-31T16:10:36.502Z,3.95
2022-10-31T16:13:44.692Z,4.90
2022-10-31T16:16:53.572Z,3.97
2022-10-31T16:20:01.002Z,6.20
2022-10-31T16:23:05.522Z,5.93
2022-10-31T16:26:11.801Z,6.10
2022-10-31T16:29:28.929Z,6.22
2022-10-31T16:32:38.330Z,6.68
2022-10-31T16:35:42.413Z,5.68
2022-10-31T16:38:47.363Z,5.82
2022-10-31T16:41:54.807Z,5.35
2022-10-31T16:44:59.040Z,5.97
2022-10-31T16:48:07.673Z,5.97
2022-10-31T16:51:12.076Z,6.30
2022-10-31T16:54:16.191Z,6.10
2022-10-31T16:57:28.949Z,6.70
2022-10-31T17:00:33.324Z,10.25
2022-10-31T17:03:38.193Z,6.50
2022-10-31T17:06:42.383Z,6.47
2022-10-31T17:09:46.631Z,7.25
2022-10-31T17:12:53.110Z,6.40
2022-10-31T17:15:59.412Z,6.97
2022-10-31T17:19:03.473Z,7.10
2022-10-31T17:22:07.897Z,7.95
2022-10-31T17:25:16.979Z,8.30
2022-10-31T17:28:22.669Z,7.97
2022-10-31T17:31:32.340Z,7.90
2022-10-31T17:34:36.800Z,8.00
2022-10-31T17:37:43.072Z,8.10
2022-10-31T17:43:56.859Z,8.52
2022-10-31T17:47:01.022Z,9.73
2022-10-31T17:50:05.429Z,12.27
2022-10-31T17:53:09.553Z,13.25
2022-10-31T17:56:14.033Z,11.32
2022-10-31T17:59:19.862Z,9.07
2022-10-31T18:02:24.441Z,11.75
2022-10-31T18:05:28.772Z,10.30
2022-10-31T18:08:35.418Z,9.85
2022-10-31T18:11:39.679Z,9.50
2022-10-31T18:14:48.431Z,11.13
2022-10-31T18:17:52.869Z,11.52
2022-10-31T18:20:59.629Z,10.52
2022-10-31T18:24:04.433Z,9.25
2022-10-31T18:27:11.838Z,11.18
2022-10-31T18:30:18.378Z,10.57
2022-10-31T18:33:22.685Z,10.13
2022-10-31T18:36:27.359Z,11.18
2022-10-31T18:39:31.648Z,8.82
2022-10-31T18:42:35.867Z,9.48
2022-10-31T18:45:48.608Z,9.35
2022-10-31T18:48:53.693Z,10.27
2022-10-31T18:51:58.035Z,16.75
2022-10-31T18:55:02.188Z,11.50
2022-10-31T18:58:06.357Z,9.43
2022-10-31T19:01:13.848Z,8.35
2022-10-31T19:04:18.099Z,8.30
2022-10-31T19:07:23.444Z,11.68
2022-10-31T19:10:29.809Z,8.80
2022-10-31T19:13:37.093Z,8.50
2022-10-31T19:16:44.596Z,9.50
2022-10-31T19:19:48.928Z,9.25
2022-10-31T19:22:53.396Z,10.77
2022-10-31T19:26:00.668Z,11.57
2022-10-31T19:29:08.215Z,8.90
2022-10-31T19:32:14.110Z,12.68
2022-10-31T19:35:18.736Z,12.05
2022-10-31T19:38:22.905Z,12.13
2022-10-31T19:41:28.525Z,13.70
2022-10-31T19:44:32.729Z,15.30
2022-10-31T19:47:38.670Z,12.02
2022-10-31T19:50:43.028Z,11.15
2022-10-31T19:53:48.017Z,10.32
2022-10-31T19:56:52.355Z,10.32
2022-10-31T19:59:56.689Z,12.77
2022-10-31T20:03:04.767Z,11.82
2022-10-31T20:06:14.784Z,13.10
2022-10-31T20:09:19.898Z,18.70
2022-10-31T20:12:24.195Z,12.98
2022-10-31T20:15:28.356Z,13.33
2022-10-31T20:18:36.845Z,12.70
2022-10-31T20:21:42.772Z,17.60
2022-10-31T20:24:46.855Z,14.77
2022-10-31T20:27:55.748Z,14.47
2022-10-31T20:31:00.166Z,14.10
2022-10-31T20:34:06.286Z,22.83
2022-10-31T20:37:14.736Z,15.38
2022-10-31T20:40:19.345Z,14.33
2022-10-31T20:43:23.645Z,12.83
2022-10-31T20:46:29.642Z,13.37
2022-10-31T20:49:42.491Z,13.50
2022-10-31T20:52:46.624Z,13.23
2022-10-31T20:55:50.905Z,13.20
2022-10-31T20:58:56.385Z,14.10
2022-10-31T21:02:02.615Z,14.10
2022-10-31T21:05:09.566Z,14.40
2022-10-31T21:08:13.915Z,14.20
2022-10-31T21:11:21.618Z,14.17
2022-10-31T21:14:25.955Z,15.00
2022-10-31T21:17:30.606Z,15.33
2022-10-31T21:20:36.816Z,15.37
2022-10-31T21:23:41.638Z,14.03
2022-10-31T21:26:50.784Z,13.37
2022-10-31T21:29:55.048Z,12.87
2022-10-31T21:32:59.296Z,13.03
2022-10-31T21:36:05.465Z,18.23
2022-10-31T21:39:10.579Z,15.87
2022-10-31T21:42:17.510Z,11.80
2022-10-31T21:45:25.437Z,13.17
2022-10-31T21:48:33.355Z,11.77
2022-10-31T21:51:43.342Z,10.97
2022-10-31T21:54:47.470Z,12.60
2022-10-31T21:57:51.745Z,12.33
2022-10-31T22:00:55.854Z,9.83
2022-10-31T22:04:00.696Z,9.00
2022-10-31T22:07:16.803Z,8.57
2022-10-31T22:10:20.926Z,8.60
2022-10-31T22:13:25.326Z,8.00
2022-10-31T22:16:31.238Z,7.07
2022-10-31T22:19:35.388Z,7.83
2022-10-31T22:22:41.146Z,7.83
2022-10-31T22:25:45.323Z,7.10
2022-10-31T22:28:53.645Z,6.57
2022-10-31T22:31:59.557Z,6.87
2022-10-31T22:35:06.249Z,6.83
2022-10-31T22:38:11.850Z,6.83
2022-10-31T22:41:17.738Z,7.47
2022-10-31T22:44:22.362Z,7.00
2022-10-31T22:47:26.648Z,7.00
2022-10-31T22:50:30.965Z,7.00
2022-10-31T22:53:38.731Z,7.07
2022-10-31T22:56:43.336Z,7.40
2022-10-31T22:59:47.559Z,7.37
2022-10-31T23:02:52.864Z,8.33
2022-10-31T23:05:58.259Z,7.30
2022-10-31T23:09:07.549Z,8.03
2022-10-31T23:12:31.171Z,6.83
2022-10-31T23:15:38.690Z,8.43
2022-10-31T23:18:50.165Z,6.70
2022-10-31T23:21:57.428Z,7.87
2022-10-31T23:25:04.333Z,7.63
2022-10-31T23:28:07.429Z,7.50
2022-10-31T23:31:11.604Z,7.70
2022-10-31T23:34:15.820Z,8.33
2022-10-31T23:37:21.675Z,8.77
2022-10-31T23:40:27.546Z,7.67
2022-10-31T23:43:31.582Z,8.37
2022-10-31T23:46:35.722Z,8.63
2022-10-31T23:49:40.114Z,8.97
2022-10-31T23:52:44.235Z,8.60
2022-10-31T23:55:49.780Z,8.37
2022-10-31T23:58:56.889Z,8.83
